Time;durP1;ratioP1;P1;durP2;ratioP2;P2;SDS_P1;SDS_P2;PMS_P1;PMS_P2;Temp;Humidity;BMP_temperature;BMP_pressure;BME280_temperature;BME280_humidity;BME280_pressure;Samples;Min_cycle;Max_cycle;Signal;HPM_P1;HPM_P2
2021/04/20 00:01:14;;;;;;;25.70;18.70;;;;;;;6.40;75.76;99002.66;113892;1200;64321;-91
2021/04/20 00:03:40;;;;;;;23.30;18.10;;;;;;;6.39;75.83;99000.09;114378;1200;64362;-89
2021/04/20 00:06:07;;;;;;;28.30;19.53;;;;;;;6.39;75.90;98992.14;113875;1199;64337;-88
2021/04/20 00:08:35;;;;;;;26.50;19.97;;;;;;;6.39;75.29;98994.80;113971;1199;64458;-89
2021/04/20 00:11:01;;;;;;;31.55;22.30;;;;;;;6.30;75.15;98995.29;114012;1200;64327;-91
2021/04/20 00:13:28;;;;;;;47.03;35.03;;;;;;;6.19;75.23;98993.25;114224;1200;64855;-92
2021/04/20 00:15:54;;;;;;;43.37;27.50;;;;;;;6.15;75.68;98997.00;113943;1200;64340;-92
2021/04/20 00:18:21;;;;;;;34.47;21.30;;;;;;;6.12;75.88;98992.73;113929;1199;64429;-89
2021/04/20 00:20:48;;;;;;;34.53;21.20;;;;;;;6.13;75.86;98990.94;113902;1200;64337;-89
2021/04/20 00:23:14;;;;;;;36.40;22.55;;;;;;;6.13;75.75;98989.14;113918;1200;64522;-94
2021/04/20 00:25:41;;;;;;;38.25;24.15;;;;;;;6.18;75.78;98986.24;113831;1200;64426;-92
2021/04/20 00:28:08;;;;;;;34.50;21.35;;;;;;;6.18;75.55;98981.80;114262;1200;64390;-92
2021/04/20 00:30:35;;;;;;;32.87;19.60;;;;;;;6.21;76.34;98981.61;113907;1200;64353;-91
2021/04/20 00:33:01;;;;;;;31.73;20.03;;;;;;;6.25;75.88;98984.95;113861;1199;64356;-89
2021/04/20 00:35:28;;;;;;;24.10;17.60;;;;;;;6.25;76.22;98982.30;113861;1200;64420;-92
2021/04/20 00:37:54;;;;;;;30.13;17.30;;;;;;;6.21;75.89;98981.61;113932;1199;65552;-92
2021/04/20 00:40:21;;;;;;;27.25;17.40;;;;;;;6.18;76.27;98980.94;114221;1200;64347;-90
2021/04/20 00:42:56;;;;;;;26.00;17.30;;;;;;;6.17;75.66;98985.39;113925;1199;64426;-87
2021/04/20 00:45:26;;;;;;;;;;;;;;;6.19;76.68;98977.34;113930;1206;64323;-91
2021/04/20 00:47:53;;;;;;;26.85;18.15;;;;;;;6.21;76.17;98986.91;113977;1200;64487;-85
2021/04/20 00:50:25;;;;;;;22.43;16.53;;;;;;;6.26;75.94;98972.55;113905;1199;64432;-87
2021/04/20 00:52:52;;;;;;;25.90;17.25;;;;;;;6.32;75.59;98972.21;113853;1200;64414;-89
2021/04/20 00:55:19;;;;;;;23.10;16.60;;;;;;;6.34;76.09;98975.63;113914;1199;64369;-88
2021/04/20 00:57:47;;;;;;;23.97;16.13;;;;;;;6.35;76.28;98978.19;113923;1199;64372;-90
2021/04/20 01:00:18;;;;;;;21.93;16.70;;;;;;;6.36;76.04;98973.73;114266;1200;64476;-89
2021/04/20 01:02:45;;;;;;;22.63;17.33;;;;;;;6.38;76.75;98980.67;113988;1199;64296;-93
2021/04/20 01:05:16;;;;;;;33.03;21.17;;;;;;;6.40;75.83;98975.28;113902;1200;64401;-90
2021/04/20 01:07:44;;;;;;;27.47;18.03;;;;;;;6.37;76.54;98980.77;113915;1199;64449;-92
2021/04/20 01:10:12;;;;;;;25.00;17.70;;;;;;;6.29;75.78;98977.67;114105;1199;64577;-90
2021/04/20 01:12:41;;;;;;;25.40;17.35;;;;;;;6.20;76.00;98976.39;113855;1198;64307;-91
2021/04/20 01:15:11;;;;;;;23.67;17.47;;;;;;;6.17;76.08;98977.44;113971;1199;64352;-89
2021/04/20 01:17:37;;;;;;;28.20;17.73;;;;;;;6.16;76.11;98977.50;113947;1198;64375;-88
2021/04/20 01:20:10;;;;;;;25.17;18.30;;;;;;;6.15;76.40;98983.75;113902;1200;64391;-94
2021/04/20 01:22:40;;;;;;;29.17;20.17;;;;;;;6.12;75.96;98991.88;113870;1199;64369;-93
2021/04/20 01:25:11;;;;;;;31.40;21.30;;;;;;;6.10;76.41;98994.59;114496;1199;64337;-89
2021/04/20 01:27:40;;;;;;;31.47;20.83;;;;;;;6.03;76.40;98990.57;114290;1200;64356;-88
2021/04/20 01:30:11;;;;;;;32.77;21.40;;;;;;;6.03;76.45;98985.27;114000;1199;64324;-89
2021/04/20 01:32:40;;;;;;;30.20;21.57;;;;;;;5.92;75.89;98980.58;114091;1198;64359;-89
2021/04/20 01:35:09;;;;;;;31.43;21.10;;;;;;;5.85;76.40;98975.63;114290;1199;64353;-92
2021/04/20 01:37:36;;;;;;;37.30;20.97;;;;;;;5.87;76.54;98974.63;113873;1200;64477;-90
2021/04/20 01:40:04;;;;;;;31.50;20.50;;;;;;;5.87;77.02;98973.77;114174;1200;64398;-89
2021/04/20 01:42:32;;;;;;;27.57;19.97;;;;;;;5.91;77.13;98977.98;113913;1198;65635;-90
2021/04/20 01:44:59;;;;;;;27.47;19.70;;;;;;;5.90;77.16;98973.59;114170;1200;64355;-88
2021/04/20 01:47:27;;;;;;;31.63;20.47;;;;;;;5.86;76.72;98986.17;113937;1200;64417;-87
2021/04/20 01:49:56;;;;;;;28.20;20.00;;;;;;;5.73;76.34;98987.77;114163;1198;64404;-88
2021/04/20 01:52:23;;;;;;;32.47;21.77;;;;;;;5.55;75.89;98981.65;114204;1199;64496;-87
2021/04/20 01:54:49;;;;;;;33.17;22.07;;;;;;;5.41;76.17;98986.82;113977;1199;64423;-88
2021/04/20 01:57:18;;;;;;;28.20;20.90;;;;;;;5.26;76.49;98980.51;114003;1199;64378;-88
2021/04/20 01:59:44;;;;;;;30.27;22.50;;;;;;;5.20;75.98;98985.27;114215;1200;64429;-88
2021/04/20 02:02:12;;;;;;;34.23;21.67;;;;;;;5.09;76.37;98986.69;113905;1199;64635;-88
2021/04/20 02:04:38;;;;;;;34.10;23.50;;;;;;;4.98;75.90;98983.72;113857;1199;64394;-90
2021/04/20 02:07:05;;;;;;;32.65;23.20;;;;;;;4.87;75.76;98988.69;113941;1200;64481;-88
2021/04/20 02:09:31;;;;;;;38.65;24.45;;;;;;;4.75;76.23;98990.15;114213;1199;64372;-89
2021/04/20 02:12:01;;;;;;;34.20;23.90;;;;;;;4.65;76.18;98993.34;113972;1200;64701;-90
2021/04/20 02:14:28;;;;;;;35.10;24.77;;;;;;;4.57;76.70;98983.97;114121;1199;64340;-91
2021/04/20 02:16:56;;;;;;;33.93;23.47;;;;;;;4.54;76.86;98994.70;113965;1199;64359;-88
2021/04/20 02:19:23;;;;;;;27.77;21.23;;;;;;;4.59;76.97;98995.34;113895;1200;64777;-89
2021/04/20 02:21:50;;;;;;;32.53;23.10;;;;;;;4.62;77.08;98983.75;114094;1199;64333;-90
2021/04/20 02:24:17;;;;;;;32.93;23.80;;;;;;;4.72;77.51;98985.02;113981;1200;64410;-92
2021/04/20 02:26:44;;;;;;;33.87;24.67;;;;;;;4.80;77.66;98993.43;113991;1198;64535;-88
2021/04/20 02:29:11;;;;;;;28.73;21.17;;;;;;;4.82;77.47;98988.91;114536;1199;64391;-91
2021/04/20 02:31:40;;;;;;;40.03;26.03;;;;;;;4.77;77.07;98984.77;114096;1200;64314;-88
2021/04/20 02:34:07;;;;;;;32.10;22.27;;;;;;;4.72;76.55;98978.88;114267;1199;64394;-88
2021/04/20 02:36:44;;;;;;;40.30;25.40;;;;;;;4.67;77.29;98978.24;114407;1199;64375;-91
2021/04/20 02:39:12;;;;;;;33.37;23.90;;;;;;;4.65;77.34;98974.83;114027;1199;64374;-89
2021/04/20 02:41:41;;;;;;;30.50;22.43;;;;;;;4.67;77.33;98978.24;114115;1199;64384;-89
2021/04/20 02:44:10;;;;;;;35.60;23.03;;;;;;;4.69;77.75;98973.72;114096;1199;64295;-88
2021/04/20 02:46:39;;;;;;;28.35;19.85;;;;;;;4.74;77.57;98977.00;113928;1199;64352;-88
2021/04/20 02:49:06;;;;;;;30.43;19.53;;;;;;;4.77;77.40;98974.19;114490;1200;64461;-90
2021/04/20 02:51:37;;;;;;;29.93;20.00;;;;;;;4.83;77.62;98965.95;113995;1199;64404;-90
2021/04/20 02:54:07;;;;;;;25.20;18.80;;;;;;;4.88;77.50;98966.58;114033;1200;64273;-88
2021/04/20 02:56:35;;;;;;;25.17;19.20;;;;;;;4.89;76.99;98965.64;114251;1198;64366;-89
2021/04/20 02:59:05;;;;;;;34.33;21.20;;;;;;;4.89;77.67;98963.00;114193;1200;64305;-89
2021/04/20 03:01:36;;;;;;;29.10;19.73;;;;;;;4.92;77.41;98968.16;114106;1200;64455;-89
2021/04/20 03:04:03;;;;;;;27.83;19.50;;;;;;;4.96;77.69;98969.69;114407;1199;64298;-91
2021/04/20 03:06:31;;;;;;;26.00;20.20;;;;;;;4.98;77.43;98959.91;113943;1198;64378;-89
2021/04/20 03:08:58;;;;;;;25.75;17.30;;;;;;;5.01;77.93;98972.96;114094;1199;64381;-89
2021/04/20 03:11:37;;;;;;;31.40;19.10;;;;;;;5.02;77.12;98966.73;114068;1197;64486;-88
2021/04/20 03:14:06;;;;;;;30.37;18.83;;;;;;;5.03;77.43;98963.17;113993;1199;64375;-89
2021/04/20 03:16:34;;;;;;;27.83;19.10;;;;;;;5.03;77.99;98968.47;114087;1199;64433;-90
2021/04/20 03:19:03;;;;;;;29.93;20.70;;;;;;;5.04;77.73;98964.88;113955;1199;64356;-89
2021/04/20 03:21:31;;;;;;;32.17;21.50;;;;;;;5.04;77.67;98961.38;114112;1200;66009;-90
2021/04/20 03:24:01;;;;;;;30.70;22.20;;;;;;;5.07;77.76;98963.86;114739;1199;64359;-90
2021/04/20 03:26:38;;;;;;;31.55;20.95;;;;;;;5.05;77.65;98958.66;114245;1199;64372;-89
2021/04/20 03:29:07;;;;;;;37.00;23.47;;;;;;;5.09;77.55;98964.63;114098;1198;64452;-92
2021/04/20 03:31:39;;;;;;;35.07;24.20;;;;;;;5.14;77.46;98963.45;114182;1200;64435;-87
2021/04/20 03:34:30;;;;;;;35.43;24.07;;;;;;;5.24;78.18;98970.95;114043;1198;64401;-87
2021/04/20 03:37:08;;;;;;;32.00;23.93;;;;;;;5.34;78.20;98962.45;115458;1199;64340;-87
2021/04/20 03:39:43;;;;;;;39.43;25.90;;;;;;;5.45;77.54;98964.52;114130;1199;64359;-88
2021/04/20 03:42:20;;;;;;;35.80;26.00;;;;;;;5.52;77.60;98960.61;113953;1199;64324;-88
2021/04/20 03:45:12;;;;;;;39.65;23.95;;;;;;;5.51;77.64;98961.55;114154;1200;64362;-88
2021/04/20 03:47:42;;;;;;;33.83;23.93;;;;;;;5.51;77.66;98968.64;114166;1198;64343;-91
2021/04/20 03:50:13;;;;;;;36.40;24.55;;;;;;;5.50;77.39;98977.53;114108;1199;64365;-87
2021/04/20 03:52:46;;;;;;;38.45;25.00;;;;;;;5.50;77.36;98972.23;114026;1198;64445;-89
2021/04/20 03:55:16;;;;;;;33.53;22.23;;;;;;;5.48;77.51;98968.81;113949;1199;64318;-90
2021/04/20 03:57:45;;;;;;;30.65;23.90;;;;;;;5.49;77.55;98975.82;114226;1199;64299;-87
2021/04/20 04:00:16;;;;;;;35.75;23.80;;;;;;;5.50;77.58;98973.08;114065;1200;64353;-88
2021/04/20 04:02:45;;;;;;;34.25;24.25;;;;;;;5.45;77.52;98979.55;114088;1200;64439;-89
2021/04/20 04:05:17;;;;;;;36.83;26.90;;;;;;;5.35;77.43;98982.70;114217;1200;64422;-88
2021/04/20 04:07:48;;;;;;;44.30;30.23;;;;;;;5.25;77.26;98978.80;114104;1200;64500;-89
2021/04/20 04:10:17;;;;;;;42.27;29.87;;;;;;;5.18;77.15;98976.55;114169;1199;64317;-89
2021/04/20 04:12:46;;;;;;;48.90;33.00;;;;;;;5.14;77.57;98981.98;114151;1200;64410;-89
2021/04/20 04:15:16;;;;;;;45.00;32.70;;;;;;;5.26;78.13;98988.45;114657;1199;64305;-90
2021/04/20 04:17:45;;;;;;;47.50;33.55;;;;;;;5.31;77.75;98982.92;114284;1199;64353;-89
2021/04/20 04:20:14;;;;;;;53.53;31.03;;;;;;;5.26;77.52;98985.80;114437;1199;64459;-89
2021/04/20 04:23:06;;;;;;;51.17;34.20;;;;;;;5.24;77.06;98989.48;114268;1198;64343;-91
2021/04/20 04:25:46;;;;;;;59.33;34.00;;;;;;;5.31;77.45;98988.22;114360;1199;64442;-90
2021/04/20 04:28:14;;;;;;;48.47;29.67;;;;;;;5.39;77.62;98986.88;114371;1200;64548;-90
2021/04/20 04:30:43;;;;;;;50.23;29.33;;;;;;;5.51;77.95;98985.39;114348;1198;65649;-88
2021/04/20 04:33:13;;;;;;;43.93;28.50;;;;;;;5.66;77.26;98987.25;114169;1198;64452;-90
2021/04/20 04:35:42;;;;;;;49.43;27.17;;;;;;;5.69;77.03;98987.06;114812;1199;64343;-89
2021/04/20 04:38:09;;;;;;;51.93;29.63;;;;;;;5.79;77.47;98983.91;114364;1199;64880;-90
2021/04/20 04:40:36;;;;;;;53.10;30.90;;;;;;;5.96;77.17;98986.55;114437;1198;64413;-89
2021/04/20 04:43:03;;;;;;;45.90;27.27;;;;;;;6.10;77.09;98976.03;114084;1199;64439;-89
2021/04/20 04:45:30;;;;;;;47.67;24.47;;;;;;;6.29;77.54;98982.97;114121;1199;64385;-91
2021/04/20 04:47:58;;;;;;;34.77;21.77;;;;;;;6.55;78.11;98990.31;114105;1199;64240;-89
2021/04/20 04:50:26;;;;;;;30.87;20.70;;;;;;;6.73;77.49;98983.97;113997;1200;64413;-89
2021/04/20 04:52:53;;;;;;;39.63;22.60;;;;;;;6.95;77.20;98978.28;114481;1199;64356;-88
2021/04/20 04:55:20;;;;;;;40.20;21.60;;;;;;;7.11;77.60;98977.37;114491;1199;64398;-90
2021/04/20 04:57:50;;;;;;;34.93;21.23;;;;;;;7.22;77.62;98981.10;114133;1200;64394;-89
2021/04/20 05:00:19;;;;;;;37.33;22.27;;;;;;;7.26;77.12;98974.67;114347;1200;64298;-88
2021/04/20 05:02:46;;;;;;;30.30;17.23;;;;;;;7.31;77.03;98967.26;114296;1199;64320;-90
2021/04/20 05:05:15;;;;;;;22.35;13.75;;;;;;;7.44;77.08;98980.66;114466;1198;64391;-89
2021/04/20 05:07:43;;;;;;;19.10;13.83;;;;;;;7.64;76.47;98974.16;114706;1199;64382;-88
2021/04/20 05:10:13;;;;;;;20.45;13.50;;;;;;;7.79;76.28;98973.20;114172;1200;64474;-94
2021/04/20 05:12:41;;;;;;;20.80;13.15;;;;;;;7.93;76.32;98982.97;114045;1199;64427;-90
2021/04/20 05:15:15;;;;;;;18.10;10.85;;;;;;;8.20;76.27;98972.38;113928;1199;64464;-88
2021/04/20 05:17:44;;;;;;;18.23;11.38;;;;;;;8.26;76.09;98979.98;114527;1199;64394;-87
2021/04/20 05:33:25;;;;;;;21.23;14.27;;;;;;;7.86;76.33;98982.50;114654;1193;64908;-86
2021/04/20 05:35:51;;;;;;;17.27;12.07;;;;;;;7.83;76.58;98988.02;114409;1199;64435;-87
2021/04/20 05:38:19;;;;;;;15.80;10.90;;;;;;;7.88;76.49;98990.38;114060;1200;64371;-88
2021/04/20 05:40:46;;;;;;;16.37;11.33;;;;;;;7.87;76.37;98980.69;114342;1200;64463;-87
2021/04/20 05:43:13;;;;;;;15.95;11.60;;;;;;;7.89;76.57;98978.81;114012;1200;64445;-90
2021/04/20 05:45:39;;;;;;;15.80;10.60;;;;;;;7.97;76.85;98979.17;113973;1199;64388;-87
2021/04/20 05:48:06;;;;;;;20.00;12.83;;;;;;;8.14;76.40;98972.77;114211;1199;64327;-88
2021/04/20 05:50:33;;;;;;;13.17;10.17;;;;;;;8.34;76.40;98974.19;114223;1199;64417;-88
2021/04/20 05:53:00;;;;;;;13.43;11.13;;;;;;;8.46;76.56;98972.55;114128;1199;64385;-86
2021/04/20 05:55:27;;;;;;;13.73;10.87;;;;;;;8.61;76.15;98967.10;114080;1198;64310;-86
2021/04/20 05:57:55;;;;;;;16.40;11.70;;;;;;;8.76;76.51;98973.22;113999;1197;64305;-92
2021/04/20 06:00:24;;;;;;;13.50;9.90;;;;;;;9.09;76.41;98974.59;113909;1199;64478;-88
2021/04/20 06:02:52;;;;;;;18.25;11.75;;;;;;;9.44;76.51;98975.72;114256;1199;64379;-90
2021/04/20 06:05:25;;;;;;;18.00;11.73;;;;;;;9.74;75.81;98966.56;114113;1199;64333;-91
2021/04/20 06:07:55;;;;;;;14.60;11.13;;;;;;;10.11;75.80;98963.94;114130;1200;64429;-88
2021/04/20 06:10:22;;;;;;;16.27;10.67;;;;;;;10.42;75.25;98963.46;114332;1199;64337;-87
2021/04/20 06:12:50;;;;;;;17.60;10.10;;;;;;;10.70;75.12;98964.13;114124;1200;64291;-88
2021/04/20 06:15:22;;;;;;;14.47;10.83;;;;;;;10.87;74.96;98958.36;114368;1199;64481;-89
2021/04/20 06:17:52;;;;;;;12.83;9.77;;;;;;;11.07;75.35;98967.58;114104;1199;64410;-86
2021/04/20 06:20:21;;;;;;;15.93;9.77;;;;;;;11.29;75.20;98956.09;114116;1200;64451;-88
2021/04/20 06:22:51;;;;;;;16.70;9.37;;;;;;;11.47;74.60;98967.20;114027;1198;64372;-89
2021/04/20 06:25:18;;;;;;;14.00;9.90;;;;;;;11.57;74.88;98963.67;113998;1200;64695;-88
2021/04/20 06:27:48;;;;;;;17.70;9.43;;;;;;;11.71;74.87;98965.30;113925;1199;64320;-85
2021/04/20 06:30:16;;;;;;;13.87;9.20;;;;;;;11.90;74.56;98968.27;114052;1199;64397;-87
2021/04/20 06:32:44;;;;;;;15.43;9.23;;;;;;;11.99;74.53;98969.35;113953;1200;64446;-87
2021/04/20 06:35:13;;;;;;;14.85;9.90;;;;;;;12.07;73.97;98969.59;113809;1200;64356;-88
2021/04/20 06:37:43;;;;;;;19.70;9.60;;;;;;;12.00;73.30;98960.34;113883;1199;64429;-86
2021/04/20 06:40:16;;;;;;;13.97;8.93;;;;;;;11.82;73.45;98962.64;113932;1200;64381;-88
2021/04/20 06:42:48;;;;;;;12.65;9.90;;;;;;;11.75;74.23;98963.22;113892;1200;64398;-87
2021/04/20 06:45:23;;;;;;;17.85;9.60;;;;;;;11.90;74.04;98967.42;113826;1199;64621;-92
2021/04/20 06:47:55;;;;;;;14.43;9.20;;;;;;;12.16;74.36;98960.84;114000;1198;64347;-88
2021/04/20 06:50:25;;;;;;;14.57;8.87;;;;;;;12.43;74.23;98968.47;114241;1199;64417;-90
2021/04/20 06:52:59;;;;;;;13.15;8.15;;;;;;;12.70;74.05;98970.71;113882;1199;64298;-90
2021/04/20 06:55:36;;;;;;;11.50;8.57;;;;;;;12.89;74.35;98969.20;113860;1200;64359;-93
2021/04/20 06:58:09;;;;;;;10.77;8.60;;;;;;;13.03;73.89;98962.69;113915;1199;64536;-92
2021/04/20 07:00:46;;;;;;;16.23;8.83;;;;;;;13.31;73.50;98958.58;113856;1199;64377;-86
2021/04/20 07:03:24;;;;;;;19.95;7.80;;;;;;;13.62;73.01;98957.66;113868;1200;64465;-87
2021/04/20 07:06:23;;;;;;;13.97;7.73;;;;;;;13.83;71.36;98948.73;113872;1200;64426;-89
2021/04/20 07:08:59;;;;;;;13.77;8.27;;;;;;;13.98;72.72;98950.91;114000;1199;64487;-88
2021/04/20 07:11:33;;;;;;;10.90;8.00;;;;;;;14.25;73.45;98955.70;113898;1200;64532;-91
2021/04/20 07:14:03;;;;;;;11.60;8.50;;;;;;;14.47;72.39;98946.59;113831;1200;64380;-88
2021/04/20 07:16:33;;;;;;;12.07;8.13;;;;;;;14.52;72.86;98943.50;113935;1200;64382;-89
2021/04/20 07:19:17;;;;;;;8.37;7.03;;;;;;;14.69;72.58;98950.86;113967;1199;64519;-87
2021/04/20 07:22:15;;;;;;;13.80;8.57;;;;;;;14.78;72.42;98946.51;113838;1198;64419;-93
2021/04/20 07:25:07;;;;;;;13.40;8.10;;;;;;;14.97;73.06;98945.67;113911;1198;64263;-87
2021/04/20 07:27:40;;;;;;;12.13;8.70;;;;;;;15.03;72.81;98948.65;113858;1199;64272;-85
2021/04/20 07:30:22;;;;;;;11.33;8.20;;;;;;;15.02;72.81;98946.11;114051;1199;64439;-88
2021/04/20 07:33:06;;;;;;;10.70;7.80;;;;;;;14.95;71.51;98945.83;113958;1199;64439;-88
2021/04/20 07:36:08;;;;;;;12.63;8.67;;;;;;;14.83;72.55;98939.73;113869;1199;64391;-87
2021/04/20 07:39:02;;;;;;;13.83;8.83;;;;;;;14.91;72.90;98947.08;113824;1199;64347;-89
2021/04/20 07:41:47;;;;;;;12.83;8.90;;;;;;;15.01;72.34;98950.61;113910;1199;64397;-87
2021/04/20 07:44:55;;;;;;;11.80;7.43;;;;;;;15.17;72.79;98951.90;113883;1200;64537;-89
2021/04/20 07:47:25;;;;;;;12.40;7.30;;;;;;;15.48;73.24;98948.05;113498;1203;64317;-90
2021/04/20 07:50:15;;;;;;;10.80;7.97;;;;;;;15.57;72.82;98949.86;113865;1202;64262;-85
2021/04/20 07:52:54;;;;;;;13.90;8.20;;;;;;;15.49;73.00;98957.81;113674;1203;64487;-86
2021/04/20 07:55:26;;;;;;;11.20;7.70;;;;;;;15.36;72.22;98946.50;113553;1202;64413;-89
2021/04/20 07:57:56;;;;;;;16.15;13.15;;;;;;;15.25;72.35;98954.72;113680;1203;64352;-88
2021/04/20 08:00:28;;;;;;;12.77;7.70;;;;;;;15.18;71.93;98953.59;113553;1203;64385;-89
2021/04/20 08:03:22;;;;;;;13.37;9.33;;;;;;;15.05;72.45;98953.88;113561;1203;64533;-89
2021/04/20 08:06:02;;;;;;;12.10;8.00;;;;;;;15.17;71.98;98947.37;113507;1203;64551;-90
2021/04/20 08:08:58;;;;;;;11.07;8.07;;;;;;;15.02;71.54;98946.11;113588;1202;64369;-85
2021/04/20 08:11:30;;;;;;;15.07;8.47;;;;;;;15.10;72.44;98957.00;113570;1203;64445;-92
2021/04/20 08:14:08;;;;;;;13.83;8.37;;;;;;;15.21;71.91;98948.80;113598;1203;64334;-88
2021/04/20 08:16:44;;;;;;;9.30;7.50;;;;;;;15.25;72.69;98952.03;113547;1203;64330;-91
2021/04/20 08:19:18;;;;;;;11.90;9.80;;;;;;;15.43;73.02;98952.16;113644;1203;64545;-86
2021/04/20 08:21:49;;;;;;;12.50;9.10;;;;;;;15.72;73.08;98947.61;113663;1202;64487;-87
2021/04/20 08:24:37;;;;;;;10.63;8.03;;;;;;;15.86;72.45;98949.83;114044;1198;64404;-85
2021/04/20 08:27:12;;;;;;;13.20;8.40;;;;;;;15.88;72.40;98949.67;114048;1200;64369;-88
2021/04/20 08:29:44;;;;;;;16.55;9.25;;;;;;;15.83;72.19;98939.33;114117;1200;64484;-85
2021/04/20 08:32:16;;;;;;;11.80;8.10;;;;;;;15.94;72.26;98951.78;114082;1200;64401;-85
2021/04/20 08:35:09;;;;;;;11.10;7.90;;;;;;;15.90;72.58;98944.98;113996;1199;64438;-85
2021/04/20 08:38:14;;;;;;;9.07;7.63;;;;;;;16.07;72.35;98943.37;114040;1199;64818;-87
2021/04/20 08:40:50;;;;;;;13.60;9.15;;;;;;;16.01;72.08;98947.50;114055;1199;64241;-89
2021/04/20 08:43:27;;;;;;;13.50;8.67;;;;;;;15.95;71.97;98943.55;113997;1199;64302;-86
2021/04/20 08:45:58;;;;;;;10.10;8.60;;;;;;;15.90;72.14;98943.17;113943;1199;64487;-86
2021/04/20 08:48:58;;;;;;;15.53;8.20;;;;;;;15.87;72.52;98938.05;114109;1199;64563;-86
2021/04/20 08:51:27;;;;;;;11.97;8.07;;;;;;;15.99;71.36;98932.50;114224;1199;64369;-83
2021/04/20 08:54:24;;;;;;;12.25;9.75;;;;;;;15.87;71.80;98939.91;114068;1199;64375;-86
2021/04/20 08:57:08;;;;;;;10.87;9.07;;;;;;;15.81;71.86;98930.56;113982;1199;64337;-86
2021/04/20 08:59:58;;;;;;;11.83;9.13;;;;;;;15.79;72.36;98935.26;113855;1199;64474;-87
2021/04/20 09:02:52;;;;;;;12.45;9.80;;;;;;;15.72;71.48;98930.61;113848;1200;64490;-86
2021/04/20 09:05:44;;;;;;;14.70;9.37;;;;;;;15.59;72.09;98933.59;113847;1199;64410;-87
2021/04/20 09:08:33;;;;;;;11.50;8.93;;;;;;;15.56;72.51;98931.17;113917;1200;64324;-89
2021/04/20 09:11:12;;;;;;;12.60;8.63;;;;;;;15.65;72.64;98920.42;114103;1200;64395;-83
2021/04/20 09:13:43;;;;;;;11.00;8.57;;;;;;;15.70;72.48;98925.34;113974;1200;64391;-85
2021/04/20 09:16:19;;;;;;;11.53;9.03;;;;;;;15.77;72.61;98918.38;113887;1200;64426;-87
2021/04/20 09:18:47;;;;;;;18.30;10.00;;;;;;;15.88;72.60;98918.20;113916;1200;64295;-89
2021/04/20 09:21:17;;;;;;;11.35;9.10;;;;;;;15.93;72.36;98929.39;113850;1199;64330;-88
2021/04/20 09:24:29;;;;;;;14.53;9.70;;;;;;;15.95;71.83;98926.55;113799;1199;64433;-88
2021/04/20 09:27:15;;;;;;;16.30;9.00;;;;;;;15.85;71.57;98929.28;113775;1199;64302;-90
2021/04/20 09:29:51;;;;;;;14.17;10.07;;;;;;;15.73;71.54;98919.69;113963;1199;64413;-87
2021/04/20 09:32:21;;;;;;;13.50;8.70;;;;;;;15.95;71.32;98918.46;114053;1199;64298;-84
2021/04/20 09:34:53;;;;;;;16.20;9.90;;;;;;;16.20;71.73;98922.33;113991;1199;64452;-87
2021/04/20 09:37:23;;;;;;;11.30;8.73;;;;;;;16.49;71.65;98916.78;113950;1199;64395;-87
2021/04/20 09:39:54;;;;;;;11.83;8.50;;;;;;;16.75;71.25;98923.16;113992;1200;64920;-86
2021/04/20 09:42:24;;;;;;;14.15;9.90;;;;;;;16.75;70.83;98923.16;113934;1200;64483;-85
2021/04/20 09:45:00;;;;;;;13.70;9.20;;;;;;;16.89;70.93;98920.93;113926;1200;64362;-85
2021/04/20 09:47:29;;;;;;;17.87;8.77;;;;;;;17.07;70.83;98912.84;113865;1200;64356;-91
2021/04/20 09:49:58;;;;;;;12.10;8.90;;;;;;;17.16;70.79;98917.29;114029;1200;64265;-87
2021/04/20 09:52:39;;;;;;;15.40;8.90;;;;;;;17.16;70.76;98914.59;113904;1199;64369;-91
2021/04/20 09:55:11;;;;;;;12.75;9.25;;;;;;;17.15;70.77;98915.59;113855;1198;64378;-86
2021/04/20 09:57:42;;;;;;;15.75;11.25;;;;;;;17.17;71.24;98914.43;113834;1199;64478;-87
2021/04/20 10:00:14;;;;;;;24.37;16.23;;;;;;;17.11;70.25;98911.51;113894;1197;64432;-86
2021/04/20 10:03:19;;;;;;;12.20;8.70;;;;;;;16.95;70.63;98906.83;113891;1200;64483;-85
2021/04/20 10:06:14;;;;;;;15.55;9.05;;;;;;;16.92;71.07;98909.81;113734;1203;64324;-90
2021/04/20 10:08:53;;;;;;;13.35;9.50;;;;;;;16.96;70.43;98911.22;113589;1203;64420;-85
2021/04/20 10:11:54;;;;;;;9.00;8.10;;;;;;;16.91;70.97;98911.67;113930;1202;64442;-87
2021/04/20 10:14:28;;;;;;;14.60;9.30;;;;;;;16.88;70.41;98906.60;113705;1203;64372;-86
2021/04/20 10:17:15;;;;;;;12.70;10.07;;;;;;;16.66;69.80;98909.70;113847;1202;64442;-90
2021/04/20 10:19:53;;;;;;;10.65;8.55;;;;;;;16.78;70.87;98907.66;113775;1202;64483;-87
2021/04/20 10:22:44;;;;;;;13.67;9.60;;;;;;;16.88;70.44;98900.36;113575;1203;64509;-85
2021/04/20 10:25:34;;;;;;;15.10;8.97;;;;;;;17.11;71.03;98901.56;113732;1200;64369;-85
2021/04/20 10:28:13;;;;;;;14.27;9.30;;;;;;;17.23;70.61;98896.77;113545;1202;64486;-84
2021/04/20 10:30:44;;;;;;;12.30;9.30;;;;;;;17.01;70.42;98895.42;113493;1202;64522;-88
2021/04/20 10:33:18;;;;;;;20.57;12.47;;;;;;;16.93;69.91;98900.75;113748;1202;64455;-84
2021/04/20 10:35:47;;;;;;;13.15;8.85;;;;;;;16.86;70.12;98896.95;113798;1202;64380;-87
2021/04/20 10:38:16;;;;;;;24.60;15.15;;;;;;;16.93;70.13;98889.96;113495;1203;64320;-87
2021/04/20 10:40:45;;;;;;;21.67;15.20;;;;;;;17.15;70.70;98888.62;113843;1201;64563;-86
2021/04/20 10:43:22;;;;;;;32.13;20.43;;;;;;;17.32;70.30;98889.61;113837;1199;64298;-86
2021/04/20 10:45:51;;;;;;;17.87;12.10;;;;;;;17.35;69.47;98884.72;114130;1200;64375;-84
2021/04/20 10:48:27;;;;;;;12.93;10.60;;;;;;;17.32;69.27;98873.41;113843;1198;64308;-86
2021/04/20 10:50:55;;;;;;;20.73;10.33;;;;;;;17.14;68.69;98885.08;113903;1199;64451;-88
2021/04/20 10:53:25;;;;;;;16.30;9.20;;;;;;;17.08;69.55;98880.30;113825;1200;64285;-87
2021/04/20 10:56:00;;;;;;;13.60;10.23;;;;;;;17.12;69.62;98876.30;113766;1199;64381;-90
2021/04/20 10:58:29;;;;;;;11.65;8.73;;;;;;;17.28;69.66;98867.47;113902;1200;64442;-88
2021/04/20 11:00:56;;;;;;;15.63;9.43;;;;;;;17.29;68.96;98864.60;113854;1199;64503;-86
2021/04/20 11:03:33;;;;;;;18.33;12.97;;;;;;;17.41;69.51;98867.05;113866;1199;64391;-86
2021/04/20 11:06:04;;;;;;;14.70;11.93;;;;;;;17.33;68.48;98869.70;113848;1200;64346;-85
2021/04/20 11:08:39;;;;;;;14.37;10.63;;;;;;;17.13;68.09;98858.26;114045;1199;64509;-86
2021/04/20 11:11:18;;;;;;;11.95;9.05;;;;;;;17.16;69.29;98852.53;113962;1200;64400;-88
2021/04/20 11:13:48;;;;;;;14.35;8.70;;;;;;;17.36;68.76;98854.02;113837;1198;64416;-91
2021/04/20 11:16:26;;;;;;;14.75;12.15;;;;;;;17.62;69.32;98850.46;113856;1198;64353;-86
2021/04/20 11:19:04;;;;;;;14.13;10.03;;;;;;;17.82;69.08;98849.28;113916;1199;64404;-85
2021/04/20 11:21:39;;;;;;;13.30;9.30;;;;;;;17.88;67.85;98845.93;113787;1199;64510;-81
2021/04/20 11:24:13;;;;;;;11.47;9.20;;;;;;;17.82;68.15;98844.72;113830;1200;64430;-85
2021/04/20 11:26:43;;;;;;;12.07;9.33;;;;;;;17.81;67.47;98847.55;113966;1199;64535;-86
2021/04/20 11:29:14;;;;;;;11.73;9.00;;;;;;;17.88;68.26;98840.53;113871;1199;64365;-86
2021/04/20 11:31:49;;;;;;;15.30;7.90;;;;;;;18.00;68.14;98836.50;113979;1200;64793;-84
2021/04/20 11:34:32;;;;;;;12.25;7.55;;;;;;;18.09;67.67;98837.39;114041;1199;64471;-85
2021/04/20 11:37:06;;;;;;;12.77;6.90;;;;;;;18.20;66.37;98834.39;114094;1199;64379;-83
2021/04/20 11:39:43;;;;;;;9.80;5.90;;;;;;;18.33;67.59;98833.92;114057;1199;64410;-85
2021/04/20 11:42:24;;;;;;;8.05;6.30;;;;;;;18.34;66.76;98830.20;113972;1200;64365;-85
2021/04/20 11:44:59;;;;;;;8.75;6.90;;;;;;;18.25;65.98;98831.17;114061;1199;64304;-85
2021/04/20 11:47:27;;;;;;;7.20;6.30;;;;;;;18.07;66.64;98826.75;113931;1200;64339;-85
2021/04/20 11:50:15;;;;;;;5.90;5.30;;;;;;;18.18;66.36;98822.04;113957;1199;64337;-85
2021/04/20 11:52:56;;;;;;;9.30;6.35;;;;;;;18.26;66.64;98822.92;114005;1199;64378;-85
2021/04/20 11:55:37;;;;;;;7.73;5.90;;;;;;;18.39;65.29;98819.75;114083;1198;64455;-83
2021/04/20 11:58:10;;;;;;;11.15;7.00;;;;;;;18.43;66.08;98823.79;114051;1200;64500;-84